Time;durP1;ratioP1;P1;durP2;ratioP2;P2;SDS_P1;SDS_P2;PMS_P1;PMS_P2;Temp;Humidity;BMP_temperature;BMP_pressure;BME280_temperature;BME280_humidity;BME280_pressure;Samples;Min_cycle;Max_cycle;Signal;HPM_P1;HPM_P2
2022/06/24 00:00:33;;;;;;;5.30;4.80;;;25.10;98.60;;;;;;5015130;28;20511;-71
2022/06/24 00:03:00;;;;;;;4.47;4.17;;;25.10;98.70;;;;;;5013939;28;23533;-71
2022/06/24 00:05:29;;;;;;;4.70;4.20;;;25.00;98.70;;;;;;5018486;28;20947;-70
2022/06/24 00:07:57;;;;;;;4.77;4.30;;;25.00;98.70;;;;;;5020210;28;20449;-70
2022/06/24 00:10:29;;;;;;;4.20;3.80;;;25.00;98.60;;;;;;5021997;28;20469;-70
2022/06/24 00:12:58;;;;;;;4.43;4.03;;;25.00;98.50;;;;;;5024084;28;20483;-70
2022/06/24 00:15:25;;;;;;;5.00;4.50;;;25.00;98.60;;;;;;5012896;28;20557;-71
2022/06/24 00:17:53;;;;;;;4.17;3.80;;;25.00;98.70;;;;;;5017724;28;20456;-71
2022/06/24 00:20:21;;;;;;;4.80;4.30;;;25.00;98.80;;;;;;5025066;28;20480;-71
2022/06/24 00:22:49;;;;;;;4.40;4.00;;;25.00;98.80;;;;;;5015053;28;20487;-70
2022/06/24 00:25:18;;;;;;;4.00;3.70;;;24.90;99.00;;;;;;5020640;28;20457;-71
2022/06/24 00:28:01;;;;;;;4.43;3.87;;;24.80;98.90;;;;;;5019486;28;20456;-70
2022/06/24 00:30:29;;;;;;;4.30;4.00;;;24.90;98.80;;;;;;5019094;28;20457;-71
2022/06/24 00:33:10;;;;;;;3.87;3.57;;;24.90;99.00;;;;;;5017616;28;21216;-71
2022/06/24 00:35:39;;;;;;;6.83;4.47;;;24.80;98.80;;;;;;5020160;28;20460;-71
2022/06/24 00:38:22;;;;;;;4.13;3.80;;;24.80;98.80;;;;;;5020728;28;20461;-71
2022/06/24 00:40:50;;;;;;;4.60;3.90;;;25.10;99.20;;;;;;5021312;28;20457;-71
2022/06/24 00:43:26;;;;;;;4.27;3.87;;;25.00;99.20;;;;;;5014598;28;21754;-71
2022/06/24 00:45:59;;;;;;;5.33;4.83;;;25.10;99.20;;;;;;5020959;28;20466;-71
2022/06/24 00:48:30;;;;;;;6.63;4.90;;;25.20;99.20;;;;;;5022553;28;20464;-71
2022/06/24 00:50:57;;;;;;;4.10;3.70;;;25.10;99.10;;;;;;5020775;28;20463;-71
2022/06/24 00:53:24;;;;;;;5.70;4.23;;;25.20;99.00;;;;;;5019741;28;20464;-71
2022/06/24 00:55:53;;;;;;;4.87;4.47;;;25.30;98.90;;;;;;5021963;28;20463;-71
2022/06/24 00:58:21;;;;;;;5.50;4.73;;;25.40;98.00;;;;;;5023419;28;20463;-71
2022/06/24 01:00:49;;;;;;;4.40;4.00;;;25.40;98.70;;;;;;5022185;28;21636;-71
2022/06/24 01:03:17;;;;;;;5.47;4.50;;;25.50;99.00;;;;;;5007173;28;20487;-71
2022/06/24 01:05:45;;;;;;;5.77;4.40;;;25.60;98.90;;;;;;5018138;28;20456;-71
2022/06/24 01:08:13;;;;;;;4.60;4.20;;;25.30;99.90;;;;;;5023746;28;22674;-71
2022/06/24 01:10:41;;;;;;;8.43;4.07;;;25.20;99.90;;;;;;5020601;28;20463;-72
2022/06/24 01:13:09;;;;;;;4.13;3.73;;;25.10;99.90;;;;;;5015148;28;20486;-72
2022/06/24 01:15:38;;;;;;;5.07;4.57;;;25.10;99.90;;;;;;5017751;28;20460;-72
2022/06/24 01:18:05;;;;;;;4.50;4.10;;;25.10;99.90;;;;;;5018302;28;20520;-71
2022/06/24 01:20:33;;;;;;;4.43;3.83;;;25.00;99.60;;;;;;5017379;28;20490;-71
2022/06/24 01:23:01;;;;;;;5.13;4.60;;;25.00;98.70;;;;;;5017396;28;20480;-72
2022/06/24 01:25:31;;;;;;;6.10;4.33;;;25.30;97.70;;;;;;5021835;28;20521;-72
2022/06/24 01:27:58;;;;;;;16.93;5.43;;;25.30;98.80;;;;;;5020701;28;20459;-72
2022/06/24 01:30:25;;;;;;;4.67;4.17;;;25.20;99.90;;;;;;5019241;28;20460;-72
2022/06/24 01:32:52;;;;;;;4.90;4.23;;;25.20;99.90;;;;;;5012188;28;20491;-72
2022/06/24 01:35:18;;;;;;;5.33;4.10;;;25.20;99.90;;;;;;5016665;28;20840;-72
2022/06/24 01:37:46;;;;;;;3.90;3.60;;;25.20;99.90;;;;;;5020870;28;20461;-71
2022/06/24 01:40:14;;;;;;;6.83;3.70;;;25.00;99.90;;;;;;5024386;28;21005;-71
2022/06/24 01:42:42;;;;;;;3.60;3.13;;;24.80;99.90;;;;;;5014500;28;20483;-71
2022/06/24 01:45:09;;;;;;;4.50;3.10;;;24.60;99.90;;;;;;5019698;28;20460;-71
2022/06/24 01:47:36;;;;;;;4.03;3.67;;;24.50;99.90;;;;;;5018274;28;20672;-71
2022/06/24 01:50:04;;;;;;;4.60;3.63;;;24.40;99.90;;;;;;5015796;28;20457;-71
2022/06/24 01:52:30;;;;;;;5.00;2.80;;;24.40;99.90;;;;;;5022035;28;20483;-72
2022/06/24 01:54:57;;;;;;;6.47;3.07;;;24.40;99.90;;;;;;5018687;28;20460;-71
2022/06/24 01:57:26;;;;;;;4.40;3.60;;;24.30;99.90;;;;;;5022371;28;21194;-71
2022/06/24 01:59:53;;;;;;;5.83;4.03;;;24.20;99.90;;;;;;5019394;28;20511;-72
2022/06/24 02:02:20;;;;;;;4.87;3.23;;;24.10;99.90;;;;;;5020825;28;21001;-71
2022/06/24 02:04:48;;;;;;;5.53;4.57;;;23.90;99.90;;;;;;5011059;28;20460;-71
2022/06/24 02:07:14;;;;;;;8.43;4.63;;;23.80;99.90;;;;;;5015855;28;20791;-70
2022/06/24 02:15:08;;;;;;;8.90;4.40;;;23.60;99.90;;;;;;5023213;28;20446;-71
2022/06/24 02:17:35;;;;;;;6.20;4.63;;;23.60;99.90;;;;;;5023450;28;20464;-71
2022/06/24 02:20:02;;;;;;;12.20;4.33;;;23.60;99.90;;;;;;5019070;28;20457;-71
2022/06/24 02:22:29;;;;;;;7.30;4.37;;;23.60;99.90;;;;;;5015822;28;20484;-71
2022/06/24 02:24:56;;;;;;;7.53;5.30;;;23.50;99.90;;;;;;5023264;28;20460;-71
2022/06/24 02:27:23;;;;;;;5.73;4.27;;;23.40;99.90;;;;;;5017911;28;20559;-71
2022/06/24 02:29:50;;;;;;;10.30;5.20;;;23.30;99.90;;;;;;5021100;28;20448;-72
2022/06/24 02:32:18;;;;;;;15.40;4.80;;;23.30;99.90;;;;;;5019884;28;20729;-72
2022/06/24 02:34:45;;;;;;;9.07;4.77;;;23.20;99.90;;;;;;5013334;28;20853;-72
2022/06/24 02:37:12;;;;;;;5.00;4.37;;;23.10;99.90;;;;;;5022436;28;20552;-71
2022/06/24 02:39:39;;;;;;;4.80;3.97;;;23.00;99.90;;;;;;5020825;28;20570;-71
2022/06/24 02:42:07;;;;;;;5.40;4.07;;;23.00;99.90;;;;;;5019671;28;20568;-72
2022/06/24 02:44:33;;;;;;;5.23;3.13;;;22.80;99.90;;;;;;5007913;28;20582;-72
2022/06/24 02:47:00;;;;;;;10.53;5.57;;;23.00;99.90;;;;;;5024159;28;21433;-71
2022/06/24 02:49:28;;;;;;;5.20;4.17;;;22.90;99.90;;;;;;5020959;28;20461;-71
2022/06/24 02:51:55;;;;;;;9.03;5.30;;;22.90;99.90;;;;;;5022978;28;20597;-70
2022/06/24 02:54:22;;;;;;;11.00;6.90;;;23.00;99.90;;;;;;5021452;28;20460;-72
2022/06/24 02:56:49;;;;;;;4.40;3.80;;;23.00;99.90;;;;;;5019391;28;20466;-72
2022/06/24 02:59:15;;;;;;;7.60;4.10;;;23.00;99.90;;;;;;5019115;28;20468;-70
2022/06/24 03:01:42;;;;;;;4.90;3.73;;;23.00;99.90;;;;;;5011644;28;20878;-72
2022/06/24 03:04:09;;;;;;;7.17;5.40;;;23.10;99.90;;;;;;5015945;28;20471;-70
2022/06/24 03:06:37;;;;;;;7.90;6.20;;;23.20;99.90;;;;;;5011273;28;21471;-72
2022/06/24 03:09:04;;;;;;;8.73;4.87;;;23.20;99.90;;;;;;5018111;28;20456;-72
2022/06/24 03:11:31;;;;;;;6.57;4.50;;;23.10;99.90;;;;;;5023243;28;20480;-71
2022/06/24 03:13:58;;;;;;;6.90;5.30;;;23.20;99.90;;;;;;5018252;28;20563;-71
2022/06/24 03:16:25;;;;;;;6.80;4.73;;;23.20;99.90;;;;;;5011762;28;20469;-71
2022/06/24 03:18:52;;;;;;;9.63;5.33;;;23.20;99.90;;;;;;5015765;28;20453;-71
2022/06/24 03:21:18;;;;;;;21.57;5.37;;;23.10;99.90;;;;;;5018236;28;20487;-71
2022/06/24 03:23:47;;;;;;;5.50;4.00;;;23.20;99.90;;;;;;5022741;28;20798;-71
2022/06/24 03:26:13;;;;;;;6.30;3.60;;;23.10;99.90;;;;;;5025484;28;20472;-72
2022/06/24 03:28:40;;;;;;;5.37;4.80;;;23.10;99.90;;;;;;5019928;28;20461;-71
2022/06/24 03:31:07;;;;;;;4.97;4.53;;;23.10;99.90;;;;;;5010964;28;20460;-71
2022/06/24 03:33:34;;;;;;;5.73;3.90;;;23.10;99.90;;;;;;5016959;28;20650;-73
2022/06/24 03:36:09;;;;;;;6.27;4.43;;;23.10;99.90;;;;;;5025246;28;20883;-71
2022/06/24 03:38:36;;;;;;;13.70;4.87;;;23.20;99.90;;;;;;5028833;28;20462;-71
2022/06/24 03:41:04;;;;;;;11.60;6.00;;;23.10;99.90;;;;;;5023044;28;20484;-71
2022/06/24 03:43:31;;;;;;;7.27;5.03;;;23.00;99.90;;;;;;5019147;28;20455;-70
2022/06/24 03:46:01;;;;;;;18.03;5.70;;;22.90;99.90;;;;;;5019673;28;20981;-74
2022/06/24 03:48:28;;;;;;;6.43;4.90;;;22.90;99.90;;;;;;5004720;28;20457;-71
2022/06/24 03:50:55;;;;;;;8.43;5.63;;;22.70;99.90;;;;;;5007329;28;20465;-72
2022/06/24 03:53:22;;;;;;;6.33;5.67;;;22.60;99.90;;;;;;5020953;28;20468;-72
2022/06/24 03:55:49;;;;;;;7.80;4.30;;;22.60;99.90;;;;;;5026723;28;20791;-71
2022/06/24 03:58:17;;;;;;;9.93;4.63;;;22.60;99.90;;;;;;5010667;28;20460;-72
2022/06/24 04:00:44;;;;;;;7.87;5.07;;;22.60;99.90;;;;;;5016720;28;20579;-72
2022/06/24 04:03:11;;;;;;;11.10;5.83;;;22.50;99.90;;;;;;5022065;28;20626;-71
2022/06/24 04:05:38;;;;;;;8.13;5.80;;;22.50;99.90;;;;;;5010607;28;20464;-71
2022/06/24 04:08:06;;;;;;;9.40;5.73;;;22.50;99.90;;;;;;5015547;28;20472;-71
2022/06/24 04:10:32;;;;;;;8.53;5.20;;;22.40;99.90;;;;;;5016584;28;20453;-71
2022/06/24 04:12:59;;;;;;;6.00;5.13;;;22.40;99.90;;;;;;5023944;28;21039;-71
2022/06/24 04:15:27;;;;;;;5.70;4.67;;;22.50;99.90;;;;;;5020627;28;21068;-71
2022/06/24 04:17:55;;;;;;;11.50;5.03;;;22.40;99.90;;;;;;5020826;28;20460;-73
2022/06/24 04:20:22;;;;;;;8.13;6.10;;;22.50;99.90;;;;;;5020871;28;20512;-71
2022/06/24 04:22:49;;;;;;;9.30;5.70;;;22.50;99.90;;;;;;5018327;28;20478;-71
2022/06/24 04:25:16;;;;;;;8.77;5.57;;;22.60;99.90;;;;;;5015213;28;20503;-70
2022/06/24 04:27:43;;;;;;;8.20;5.80;;;22.50;99.90;;;;;;5019003;28;20457;-71
2022/06/24 04:30:12;;;;;;;8.37;5.50;;;22.40;99.90;;;;;;5025001;28;20463;-71
2022/06/24 04:32:40;;;;;;;8.17;6.37;;;22.20;99.90;;;;;;5024878;28;20476;-71
2022/06/24 04:35:08;;;;;;;8.67;7.50;;;22.10;99.90;;;;;;5015299;28;20470;-71
2022/06/24 04:37:36;;;;;;;8.60;6.40;;;22.10;99.90;;;;;;5020433;28;20940;-71
2022/06/24 04:40:04;;;;;;;12.50;6.50;;;22.10;99.90;;;;;;5018497;28;21083;-71
2022/06/24 04:42:31;;;;;;;10.57;6.50;;;22.10;99.90;;;;;;5021186;28;20857;-71
2022/06/24 04:44:57;;;;;;;10.20;7.00;;;22.20;99.90;;;;;;5020309;28;20560;-71
2022/06/24 04:47:24;;;;;;;13.83;6.40;;;22.30;99.90;;;;;;5016843;28;20471;-70
2022/06/24 04:49:52;;;;;;;10.00;7.47;;;22.30;99.90;;;;;;5013594;28;20456;-71
2022/06/24 04:52:19;;;;;;;11.20;7.17;;;22.40;99.90;;;;;;5026123;28;21023;-72
2022/06/24 04:54:47;;;;;;;13.60;6.60;;;22.40;99.90;;;;;;5032475;28;20453;-71
2022/06/24 04:57:14;;;;;;;10.07;7.37;;;22.50;99.90;;;;;;5037342;28;20444;-71
2022/06/24 04:59:41;;;;;;;14.57;7.90;;;22.50;99.90;;;;;;5028581;28;20546;-71
2022/06/24 05:02:08;;;;;;;12.33;8.07;;;22.50;99.90;;;;;;5028672;28;20481;-71
2022/06/24 05:04:35;;;;;;;9.80;7.00;;;22.60;99.90;;;;;;5023540;28;20990;-71
2022/06/24 05:07:04;;;;;;;10.10;7.70;;;22.60;99.90;;;;;;5029171;28;20508;-71
2022/06/24 05:09:30;;;;;;;8.07;6.90;;;22.50;99.90;;;;;;5029450;28;20532;-72
2022/06/24 05:11:57;;;;;;;13.60;9.03;;;22.40;99.90;;;;;;5025771;28;20499;-71
2022/06/24 05:14:24;;;;;;;12.00;8.53;;;22.50;99.90;;;;;;5024293;28;20507;-71
2022/06/24 05:16:51;;;;;;;12.83;8.60;;;22.60;99.90;;;;;;5025675;28;20445;-71
2022/06/24 05:19:18;;;;;;;13.60;9.33;;;22.70;99.90;;;;;;5031852;28;20550;-71
2022/06/24 05:21:45;;;;;;;15.40;9.77;;;22.70;99.90;;;;;;5029244;28;20993;-71
2022/06/24 05:24:13;;;;;;;11.77;10.57;;;22.70;99.90;;;;;;5031534;28;20460;-71
2022/06/24 05:26:41;;;;;;;13.07;10.40;;;22.60;99.90;;;;;;5031362;28;20540;-70
2022/06/24 05:29:08;;;;;;;13.20;11.43;;;22.60;99.90;;;;;;5031479;28;20457;-71
2022/06/24 05:31:35;;;;;;;13.43;10.20;;;22.60;99.90;;;;;;5025708;28;20469;-71
2022/06/24 05:34:02;;;;;;;14.50;10.17;;;22.60;99.90;;;;;;5031108;28;20454;-71
2022/06/24 05:36:29;;;;;;;14.10;9.77;;;22.60;99.90;;;;;;5027560;28;20953;-70
2022/06/24 05:38:56;;;;;;;17.70;12.50;;;22.50;99.90;;;;;;5025892;28;20452;-71
2022/06/24 05:41:24;;;;;;;13.20;9.77;;;22.50;99.90;;;;;;5028316;28;20496;-72
2022/06/24 05:43:51;;;;;;;21.80;10.87;;;22.60;99.90;;;;;;5032791;28;20813;-72
2022/06/24 05:46:18;;;;;;;17.00;8.87;;;22.60;99.90;;;;;;5027023;28;20460;-71
2022/06/24 05:48:44;;;;;;;14.40;10.93;;;22.50;99.90;;;;;;5030453;28;20452;-72
2022/06/24 05:51:13;;;;;;;13.30;10.40;;;22.50;99.90;;;;;;5026862;28;20441;-72
2022/06/24 05:56:26;;;;;;;13.70;9.33;;;22.50;99.90;;;;;;5026400;28;20881;-71
2022/06/24 05:58:53;;;;;;;13.07;10.37;;;22.50;99.90;;;;;;5027747;28;20445;-71
2022/06/24 06:01:20;;;;;;;12.33;9.60;;;22.20;99.90;;;;;;5029691;28;20564;-71
2022/06/24 06:03:47;;;;;;;13.10;9.03;;;22.10;99.90;;;;;;5027138;28;20474;-71
2022/06/24 06:06:15;;;;;;;13.10;9.27;;;22.00;99.90;;;;;;5015978;28;20510;-70
2022/06/24 06:08:41;;;;;;;11.83;9.50;;;22.00;99.90;;;;;;5028081;28;20484;-71
2022/06/24 06:11:12;;;;;;;9.50;7.50;;;21.90;99.90;;;;;;5024405;28;20460;-72
2022/06/24 06:13:41;;;;;;;12.00;8.50;;;22.00;99.90;;;;;;5027991;28;20441;-72
2022/06/24 06:16:08;;;;;;;14.50;9.63;;;21.80;99.90;;;;;;5027016;28;20508;-72
2022/06/24 06:18:36;;;;;;;8.97;7.70;;;21.80;99.90;;;;;;5029289;28;20528;-71
2022/06/24 06:21:03;;;;;;;9.57;7.07;;;21.70;99.90;;;;;;5030040;28;20495;-71
2022/06/24 06:23:31;;;;;;;8.10;7.10;;;21.70;99.90;;;;;;5028319;28;20810;-71
2022/06/24 06:25:58;;;;;;;9.50;6.30;;;21.80;99.90;;;;;;5030284;28;20446;-72
2022/06/24 06:28:25;;;;;;;7.47;6.23;;;21.80;99.90;;;;;;5028223;28;20970;-72
2022/06/24 06:30:54;;;;;;;8.37;6.03;;;21.70;99.90;;;;;;5025527;28;20916;-71
2022/06/24 06:33:20;;;;;;;8.17;5.60;;;21.70;99.90;;;;;;5023474;28;20460;-72
2022/06/24 06:35:48;;;;;;;12.50;5.67;;;21.80;99.90;;;;;;5030760;28;20738;-73
2022/06/24 06:38:15;;;;;;;6.57;5.60;;;21.80;99.90;;;;;;5022635;28;20471;-72
2022/06/24 06:40:42;;;;;;;6.17;5.10;;;22.00;99.90;;;;;;5027100;28;20506;-72
2022/06/24 06:43:09;;;;;;;10.40;5.60;;;22.00;99.90;;;;;;5025818;28;20470;-72
2022/06/24 06:45:38;;;;;;;5.93;4.70;;;22.10;99.90;;;;;;5033153;28;20460;-71
2022/06/24 06:48:07;;;;;;;6.30;4.80;;;22.10;99.90;;;;;;5027538;28;21127;-73
2022/06/24 06:50:34;;;;;;;6.03;4.20;;;22.10;99.90;;;;;;5023094;28;20471;-73
2022/06/24 06:53:02;;;;;;;6.73;4.43;;;22.00;99.90;;;;;;5030662;28;20465;-72
2022/06/24 06:55:28;;;;;;;4.40;3.17;;;22.10;99.90;;;;;;5027612;28;20442;-72
2022/06/24 06:57:55;;;;;;;4.43;3.83;;;22.00;99.90;;;;;;5026866;28;20468;-71
2022/06/24 07:00:22;;;;;;;4.80;3.40;;;22.00;99.90;;;;;;5024682;28;22749;-73
2022/06/24 07:02:50;;;;;;;5.90;3.70;;;22.10;99.90;;;;;;5030477;28;20552;-72
2022/06/24 07:05:18;;;;;;;11.23;4.10;;;22.50;99.90;;;;;;5029199;28;20456;-73
2022/06/24 07:07:45;;;;;;;6.97;3.40;;;22.80;99.90;;;;;;5028334;28;20461;-72
2022/06/24 07:10:12;;;;;;;5.80;3.43;;;23.00;99.90;;;;;;5035838;28;20811;-72
2022/06/24 07:12:39;;;;;;;4.80;3.93;;;23.30;99.90;;;;;;5026064;28;20480;-73
2022/06/24 07:15:07;;;;;;;7.70;4.20;;;23.30;99.90;;;;;;5027637;28;20449;-73
2022/06/24 07:17:34;;;;;;;10.63;3.07;;;23.30;99.90;;;;;;5028265;28;20976;-72
2022/06/24 07:20:01;;;;;;;4.90;2.37;;;23.30;99.90;;;;;;5027374;28;20471;-73
2022/06/24 07:22:29;;;;;;;3.27;2.50;;;23.20;99.90;;;;;;5024061;28;20512;-72
2022/06/24 07:24:56;;;;;;;6.23;2.93;;;23.20;99.90;;;;;;5026686;28;20531;-73
2022/06/24 07:27:23;;;;;;;10.70;3.20;;;23.40;99.90;;;;;;5027862;28;20480;-73
2022/06/24 07:29:49;;;;;;;8.53;2.80;;;23.70;99.90;;;;;;5024431;28;20441;-72
2022/06/24 07:32:16;;;;;;;11.03;2.27;;;23.60;99.90;;;;;;5031125;28;20571;-73
2022/06/24 07:34:43;;;;;;;2.73;1.90;;;23.50;99.90;;;;;;5032689;28;20453;-73
2022/06/24 07:37:10;;;;;;;2.40;2.00;;;23.60;99.90;;;;;;5028726;28;20461;-72
2022/06/24 07:39:38;;;;;;;3.40;1.97;;;23.40;99.90;;;;;;5019085;28;20461;-72
2022/06/24 07:42:06;;;;;;;6.10;2.10;;;23.40;99.90;;;;;;5025420;28;20491;-73
2022/06/24 07:44:33;;;;;;;3.30;2.40;;;23.70;99.90;;;;;;5026586;28;20457;-73
2022/06/24 07:47:00;;;;;;;4.70;2.20;;;23.90;99.90;;;;;;5026787;28;20958;-73
2022/06/24 07:49:27;;;;;;;2.77;1.90;;;24.10;99.90;;;;;;5026793;28;20456;-73
2022/06/24 07:51:54;;;;;;;4.00;1.87;;;23.70;99.90;;;;;;5029273;28;20465;-72
2022/06/24 07:54:21;;;;;;;1.97;1.70;;;23.40;99.90;;;;;;5027658;28;20550;-72
2022/06/24 07:56:57;;;;;;;5.13;2.60;;;23.50;99.90;;;;;;5029777;28;20480;-73
2022/06/24 07:59:24;;;;;;;10.07;2.17;;;23.20;99.90;;;;;;5027734;28;20526;-72
2022/06/24 08:01:52;;;;;;;3.03;1.77;;;23.20;99.90;;;;;;5025926;28;20489;-71
2022/06/24 08:04:19;;;;;;;3.50;2.37;;;23.20;99.90;;;;;;5020119;28;20448;-72
2022/06/24 08:06:46;;;;;;;4.40;3.63;;;23.50;99.90;;;;;;5028291;28;20464;-71
2022/06/24 08:09:13;;;;;;;2.80;2.10;;;23.50;99.90;;;;;;5027526;28;20456;-73
2022/06/24 08:11:40;;;;;;;2.43;1.87;;;23.80;99.90;;;;;;5027527;28;20491;-73
2022/06/24 08:14:09;;;;;;;4.53;2.37;;;24.00;99.90;;;;;;5031541;28;20455;-73
2022/06/24 08:16:36;;;;;;;2.43;1.63;;;24.30;99.90;;;;;;5027022;28;20449;-72
2022/06/24 08:19:04;;;;;;;2.33;1.77;;;24.50;99.90;;;;;;5028180;28;20444;-73
2022/06/24 08:21:31;;;;;;;3.30;2.10;;;24.30;99.90;;;;;;5026264;28;20480;-72
2022/06/24 08:23:58;;;;;;;4.30;2.30;;;24.00;99.90;;;;;;5029240;28;20540;-73
2022/06/24 08:26:25;;;;;;;9.53;3.30;;;23.80;99.90;;;;;;5028259;28;20448;-72
2022/06/24 08:28:52;;;;;;;3.17;2.23;;;24.00;99.90;;;;;;5028161;28;20508;-73
2022/06/24 08:31:20;;;;;;;2.70;2.03;;;24.00;99.90;;;;;;5026091;28;20549;-73
2022/06/24 08:33:47;;;;;;;3.00;2.70;;;23.90;99.90;;;;;;5031908;28;20452;-72
2022/06/24 08:36:14;;;;;;;4.50;4.07;;;23.90;99.90;;;;;;5030216;28;20446;-73
2022/06/24 08:38:41;;;;;;;6.77;6.00;;;23.50;99.90;;;;;;5020712;28;20453;-73
2022/06/24 08:41:08;;;;;;;8.70;5.87;;;23.20;99.90;;;;;;5026841;28;20799;-72
2022/06/24 08:43:36;;;;;;;5.10;4.60;;;22.90;99.90;;;;;;5028079;28;20451;-73
2022/06/24 08:46:04;;;;;;;6.00;5.50;;;22.80;99.90;;;;;;5026520;28;20483;-72
2022/06/24 08:48:32;;;;;;;5.70;4.40;;;22.90;99.90;;;;;;5028429;28;20445;-73
2022/06/24 08:51:00;;;;;;;6.90;5.07;;;23.10;99.90;;;;;;5027665;28;20439;-73
2022/06/24 08:53:28;;;;;;;4.90;4.40;;;23.00;99.90;;;;;;5027290;28;20445;-73
2022/06/24 08:55:56;;;;;;;7.53;4.70;;;23.00;99.90;;;;;;5031173;28;20444;-73
2022/06/24 08:58:23;;;;;;;8.57;4.70;;;22.80;99.90;;;;;;5031942;28;20837;-72
2022/06/24 09:00:50;;;;;;;6.13;5.43;;;22.60;99.90;;;;;;5017597;28;20483;-72
2022/06/24 09:03:16;;;;;;;7.03;3.80;;;22.80;99.90;;;;;;5033898;28;20480;-71
2022/06/24 09:05:45;;;;;;;6.20;4.77;;;22.90;99.90;;;;;;5031502;28;21050;-72
2022/06/24 09:08:14;;;;;;;4.93;4.43;;;23.00;99.90;;;;;;5031911;28;20453;-72
2022/06/24 09:10:42;;;;;;;5.63;4.17;;;23.50;99.90;;;;;;5033344;28;20461;-73
2022/06/24 09:13:18;;;;;;;7.00;4.67;;;23.60;99.90;;;;;;5031327;28;21014;-74
2022/06/24 09:15:51;;;;;;;6.90;5.53;;;23.90;99.90;;;;;;5028646;28;20952;-72
2022/06/24 09:18:21;;;;;;;5.17;4.60;;;24.00;99.90;;;;;;5028862;28;20556;-72
2022/06/24 09:20:51;;;;;;;5.83;4.23;;;23.90;99.90;;;;;;5030081;28;20993;-73
2022/06/24 09:23:18;;;;;;;8.40;4.00;;;23.70;99.90;;;;;;5030759;28;20492;-73
2022/06/24 09:25:47;;;;;;;4.73;4.33;;;23.30;99.90;;;;;;5030688;28;20460;-72
2022/06/24 09:28:21;;;;;;;5.00;4.50;;;22.80;99.90;;;;;;5027261;28;20543;-73
2022/06/24 09:30:48;;;;;;;4.87;4.47;;;22.50;99.90;;;;;;5027594;28;20460;-72
2022/06/24 09:33:17;;;;;;;9.23;5.17;;;22.40;99.90;;;;;;5026997;28;20464;-72
2022/06/24 09:35:44;;;;;;;7.10;5.50;;;22.40;99.90;;;;;;5030864;28;20477;-73
2022/06/24 09:38:12;;;;;;;5.53;4.20;;;22.50;99.90;;;;;;5031268;28;20535;-73
2022/06/24 09:40:41;;;;;;;3.10;2.80;;;22.40;99.90;;;;;;5027883;28;20445;-73
2022/06/24 09:43:09;;;;;;;2.43;2.23;;;22.30;99.90;;;;;;5032921;28;20891;-73
2022/06/24 09:45:47;;;;;;;3.87;2.67;;;22.40;99.90;;;;;;5028789;28;20558;-73
2022/06/24 09:48:27;;;;;;;1.53;1.43;;;22.60;99.90;;;;;;5030958;28;20510;-72
2022/06/24 09:50:55;;;;;;;2.60;2.13;;;22.60;99.90;;;;;;5029230;28;20449;-73
2022/06/24 09:53:25;;;;;;;2.03;1.47;;;22.60;99.90;;;;;;5033759;28;20880;-73
2022/06/24 09:55:52;;;;;;;5.93;3.53;;;22.50;99.90;;;;;;5029463;28;20511;-73
2022/06/24 09:58:20;;;;;;;3.00;2.37;;;22.40;99.90;;;;;;5030535;28;20452;-74
2022/06/24 10:00:47;;;;;;;2.97;2.70;;;22.40;99.90;;;;;;5032207;28;21218;-73
2022/06/24 10:03:15;;;;;;;10.23;4.60;;;22.20;99.90;;;;;;5032142;28;20478;-71
2022/06/24 10:05:43;;;;;;;2.97;2.67;;;22.00;99.90;;;;;;5027480;28;20479;-72
2022/06/24 10:08:12;;;;;;;3.27;2.93;;;21.90;99.90;;;;;;5028244;28;20533;-73
2022/06/24 10:10:46;;;;;;;2.90;2.13;;;21.70;99.90;;;;;;5025391;28;20469;-74
2022/06/24 10:13:23;;;;;;;3.70;3.37;;;21.60;99.90;;;;;;5028522;28;20464;-73
2022/06/24 10:15:50;;;;;;;15.50;8.70;;;21.50;99.90;;;;;;5029498;28;20457;-73
2022/06/24 10:18:19;;;;;;;4.07;3.60;;;21.60;99.90;;;;;;5025640;28;20517;-74
2022/06/24 10:20:47;;;;;;;2.87;2.50;;;21.80;99.90;;;;;;5030044;28;20570;-73
2022/06/24 10:23:40;;;;;;;3.33;2.90;;;21.90;99.90;;;;;;5029843;28;20576;-73
2022/06/24 10:26:17;;;;;;;4.63;3.70;;;21.90;99.90;;;;;;5029388;28;20423;-76
2022/06/24 10:29:17;;;;;;;5.00;4.50;;;22.00;99.90;;;;;;5027716;28;20970;-72
2022/06/24 10:32:08;;;;;;;5.57;4.33;;;22.60;99.90;;;;;;5023626;28;20479;-74
2022/06/24 10:34:43;;;;;;;5.80;3.57;;;22.80;99.90;;;;;;5025227;28;20533;-74
2022/06/24 10:37:30;;;;;;;4.20;3.80;;;22.80;99.90;;;;;;5021308;28;20467;-74
2022/06/24 10:39:59;;;;;;;5.13;3.40;;;23.40;99.90;;;;;;5027573;28;20947;-73
2022/06/24 10:42:30;;;;;;;5.67;3.90;;;24.20;99.90;;;;;;5030715;28;20512;-73
2022/06/24 10:45:01;;;;;;;4.77;3.53;;;25.20;99.90;;;;;;5031029;28;20538;-73
2022/06/24 10:47:30;;;;;;;4.93;4.23;;;25.20;99.90;;;;;;5031572;28;20484;-73
2022/06/24 10:50:14;;;;;;;7.13;5.90;;;25.20;99.90;;;;;;5034954;28;20452;-74
2022/06/24 10:52:55;;;;;;;6.57;4.00;;;25.20;99.90;;;;;;5032798;28;20465;-74
2022/06/24 10:55:32;;;;;;;4.00;3.43;;;25.00;99.90;;;;;;5036335;28;20456;-73
2022/06/24 10:58:04;;;;;;;6.97;4.33;;;25.70;99.90;;;;;;5027775;28;20471;-73
2022/06/24 11:00:48;;;;;;;4.63;3.80;;;26.10;99.90;;;;;;5026070;28;20453;-73
2022/06/24 11:03:19;;;;;;;7.23;4.07;;;26.20;99.90;;;;;;5029087;28;20487;-73
2022/06/24 11:05:47;;;;;;;3.73;3.40;;;26.50;99.90;;;;;;5024504;28;20548;-72
2022/06/24 11:08:16;;;;;;;5.27;3.37;;;26.40;99.90;;;;;;5024090;28;20460;-73
2022/06/24 11:10:44;;;;;;;4.03;3.20;;;25.70;99.90;;;;;;5028952;28;20445;-72
2022/06/24 11:13:12;;;;;;;3.80;3.27;;;25.70;99.90;;;;;;5026140;28;20560;-73
2022/06/24 11:15:41;;;;;;;5.23;3.80;;;26.20;99.90;;;;;;5026447;28;20461;-74
2022/06/24 11:18:09;;;;;;;4.40;4.00;;;26.10;99.90;;;;;;5025547;28;20945;-74
2022/06/24 11:20:37;;;;;;;4.93;3.07;;;26.10;99.90;;;;;;5029363;28;20887;-74
2022/06/24 11:23:08;;;;;;;5.10;3.47;;;26.90;99.90;;;;;;5030219;28;20860;-72
2022/06/24 11:25:35;;;;;;;3.90;2.50;;;27.30;99.90;;;;;;5027817;28;20507;-72
2022/06/24 11:28:03;;;;;;;4.47;2.70;;;28.10;99.90;;;;;;5031969;28;20436;-72
2022/06/24 11:30:31;;;;;;;5.80;3.40;;;28.20;99.90;;;;;;5027116;28;20452;-72
2022/06/24 11:32:59;;;;;;;4.30;3.13;;;27.90;99.90;;;;;;5026364;28;20470;-72
2022/06/24 11:35:27;;;;;;;6.50;4.17;;;28.40;99.90;;;;;;5028368;28;20539;-72
2022/06/24 11:37:56;;;;;;;5.73;4.20;;;29.30;99.90;;;;;;5027809;28;21626;-73
2022/06/24 11:40:24;;;;;;;5.07;4.60;;;28.90;99.90;;;;;;5024601;28;21097;-73
2022/06/24 11:42:52;;;;;;;5.23;4.83;;;28.30;99.90;;;;;;5014400;28;20592;-72
2022/06/24 11:45:33;;;;;;;4.00;3.67;;;28.50;99.90;;;;;;5022164;28;21230;-73
2022/06/24 11:48:00;;;;;;;5.30;4.67;;;29.40;99.90;;;;;;5021906;28;20472;-73
2022/06/24 11:50:27;;;;;;;5.30;4.80;;;28.70;99.90;;;;;;5025813;28;20464;-73
2022/06/24 11:52:56;;;;;;;8.90;5.40;;;28.20;99.90;;;;;;5020745;28;20487;-73
2022/06/24 11:55:26;;;;;;;6.53;5.93;;;28.10;99.90;;;;;;5018779;28;20861;-74
2022/06/24 11:57:54;;;;;;;6.57;5.97;;;28.10;99.90;;;;;;5022237;28;20449;-72
2022/06/24 12:00:23;;;;;;;7.80;7.10;;;27.90;99.90;;;;;;5021965;28;20476;-72
2022/06/24 12:02:51;;;;;;;7.43;6.73;;;27.90;99.90;;;;;;5026236;28;20497;-73
2022/06/24 12:05:19;;;;;;;8.67;6.00;;;28.50;99.90;;;;;;5028045;28;20853;-72
2022/06/24 12:07:47;;;;;;;12.20;9.10;;;29.60;99.90;;;;;;5025222;28;20945;-72
2022/06/24 12:10:13;;;;;;;9.17;7.97;;;29.80;99.90;;;;;;5027899;28;20445;-73
2022/06/24 12:12:55;;;;;;;7.67;6.93;;;30.00;99.90;;;;;;5026093;28;20500;-72
2022/06/24 12:15:24;;;;;;;9.17;8.27;;;29.80;99.90;;;;;;5024955;28;20444;-72
2022/06/24 12:17:54;;;;;;;11.93;9.50;;;29.70;99.90;;;;;;5024698;28;20507;-72
2022/06/24 12:20:25;;;;;;;9.40;8.50;;;29.10;99.90;;;;;;5030180;28;20464;-71
2022/06/24 12:23:17;;;;;;;8.47;7.77;;;28.40;99.90;;;;;;5027098;28;21001;-73
2022/06/24 12:25:45;;;;;;;10.87;7.73;;;28.20;99.90;;;;;;5024943;28;20472;-71
2022/06/24 12:28:16;;;;;;;6.73;6.07;;;28.50;99.90;;;;;;5025555;28;20449;-73
2022/06/24 12:30:44;;;;;;;6.87;6.20;;;28.10;99.90;;;;;;5022516;28;20476;-73
2022/06/24 12:33:14;;;;;;;6.30;5.67;;;27.90;99.90;;;;;;5020078;28;20554;-73
2022/06/24 12:35:43;;;;;;;5.70;5.10;;;27.60;99.90;;;;;;5029247;28;21172;-72
2022/06/24 12:38:12;;;;;;;6.87;6.20;;;27.80;99.90;;;;;;5027858;28;20835;-74
2022/06/24 12:40:40;;;;;;;6.03;5.53;;;27.90;99.90;;;;;;5024133;28;20461;-74
2022/06/24 12:43:08;;;;;;;8.23;5.70;;;29.00;99.90;;;;;;5026371;28;21355;-73
2022/06/24 12:45:36;;;;;;;6.13;5.53;;;29.90;99.90;;;;;;5029540;28;20506;-73
2022/06/24 12:50:59;;;;;;;6.63;5.90;;;31.40;99.90;;;;;;5019813;28;20447;-73
2022/06/24 12:53:26;;;;;;;5.70;5.10;;;31.70;99.90;;;;;;5027408;28;20478;-73
2022/06/24 12:55:54;;;;;;;6.67;5.93;;;32.40;99.90;;;;;;5031637;28;20451;-73
2022/06/24 12:58:20;;;;;;;5.73;4.80;;;32.40;99.90;;;;;;5023517;28;20457;-73
2022/06/24 13:00:48;;;;;;;4.83;4.37;;;33.00;99.90;;;;;;5021520;28;20449;-71
2022/06/24 13:03:18;;;;;;;8.17;4.57;;;33.30;99.90;;;;;;5020036;28;20481;-71